»·PEaware :: N172SP L52-L88

N172SP :: L52-L88

FLIGHT INFORMATION

Flight Status: Arrived
Operator: Privately registered:
United States
More flights under this callsign
Pilot: Brian D. (22974)
Aircraft: CESSNA 172 SKYHAWK
(C172)
More flights by this aircraft type
Origin: L52 Oceano Co
United States
Destination: L88 New Cuyama
United States
More flights between these airports :: More routes between these airports
Route:
File this flight plan on PilotEdge
Remarks: New Pilot CAT-I
Altitude:
(Current/Filed)
3,500ft
Speed:
(Current/Filed)
100kts
Departed: 10-Jan-19 10:50 AM
Arrived: 10-Jan-19 11:23 AM
Distance/Time
Traveled:
47nm/0:32
Distance/Time
To Go:
Arrived

Flight Plot

Page will automatically refresh every two minutes.


Map Options




Map Legend


Flown Route
Filed Route
Departure Airport
Arrival Airport
Navaid (VOR, NDB)
Fix

Horizontal Profiles

Position Reports

Time Latitude Longitude Heading Altitude Ground
Speed
10-Jan-19 10:34 35.103381 -120.624688 212 18ft 0kts
10-Jan-19 10:35 35.103381 -120.624688 212 18ft 0kts
10-Jan-19 10:36 35.103381 -120.624688 212 18ft 0kts
10-Jan-19 10:37 35.103381 -120.624688 212 18ft 0kts
10-Jan-19 10:38 35.103381 -120.624688 212 18ft 0kts
10-Jan-19 10:39 35.103381 -120.624688 212 18ft 0kts
10-Jan-19 10:40 35.103381 -120.624688 212 18ft 0kts
10-Jan-19 10:41 35.103381 -120.624688 212 18ft 0kts
10-Jan-19 10:42 35.103381 -120.624688 212 18ft 0kts
10-Jan-19 10:43 35.103381 -120.624688 212 18ft 0kts
10-Jan-19 10:44 35.103381 -120.624688 212 18ft 0kts
10-Jan-19 10:45 35.102678 -120.623988 207 18ft 7kts
10-Jan-19 10:46 35.101655 -120.623529 122 18ft 6kts
10-Jan-19 10:47 35.099559 -120.619468 73 18ft 0kts
10-Jan-19 10:48 35.099559 -120.619468 73 18ft 0kts
10-Jan-19 10:49 35.104987 -120.629428 291 241ft 64kts
10-Jan-19 10:50 35.113641 -120.647459 306 1216ft 62kts
10-Jan-19 10:51 35.111661 -120.662068 158 2269ft 62kts
10-Jan-19 10:52 35.106226 -120.643091 98 3258ft 63kts
10-Jan-19 10:53 35.101770 -120.614960 101 3499ft 93kts
10-Jan-19 10:54 35.096251 -120.581509 100 3500ft 106kts
10-Jan-19 10:55 35.090421 -120.546285 100 3500ft 107kts
10-Jan-19 10:56 35.084337 -120.509443 100 3500ft 118kts
10-Jan-19 10:57 35.077903 -120.470536 100 3499ft 118kts
10-Jan-19 10:58 35.071455 -120.431521 100 3499ft 118kts
10-Jan-19 10:59 35.065029 -120.392603 100 3499ft 118kts
10-Jan-19 11:00 35.058602 -120.353647 100 3499ft 118kts
10-Jan-19 11:01 35.052415 -120.316148 101 3499ft 118kts
10-Jan-19 11:02 35.045995 -120.277210 101 3499ft 118kts
10-Jan-19 11:03 35.039604 -120.238421 101 3499ft 118kts
10-Jan-19 11:04 35.033185 -120.199439 101 3499ft 118kts
10-Jan-19 11:05 35.026759 -120.160396 101 3499ft 118kts
10-Jan-19 11:06 35.020362 -120.121509 101 3500ft 118kts
10-Jan-19 11:07 35.013958 -120.082251 100 3838ft 119kts
10-Jan-19 11:08 35.007559 -120.042898 100 4236ft 119kts
10-Jan-19 11:09 35.002120 -120.006274 93 5055ft 91kts
10-Jan-19 11:10 35.002373 -119.973960 100 5499ft 112kts
10-Jan-19 11:11 34.996254 -119.936553 101 5499ft 114kts
10-Jan-19 11:12 34.990082 -119.898899 101 5499ft 114kts
10-Jan-19 11:13 34.983957 -119.861502 100 5499ft 114kts
10-Jan-19 11:14 34.977971 -119.824991 101 5472ft 98kts
10-Jan-19 11:15 34.972617 -119.792440 101 4789ft 98kts
10-Jan-19 11:16 34.967329 -119.760261 101 4147ft 97kts
10-Jan-19 11:17 34.956975 -119.731523 142 3533ft 95kts
10-Jan-19 11:18 34.940826 -119.714104 112 3051ft 80kts
10-Jan-19 11:19 34.932465 -119.689389 112 2376ft 72kts
10-Jan-19 11:20 34.932254 -119.670214 12 2588ft 63kts
10-Jan-19 11:21 34.939655 -119.684877 295 2207ft 44kts
10-Jan-19 11:22 34.942598 -119.691145 332 2207ft 9kts
10-Jan-19 11:23 34.942823 -119.690638 183 2207ft 0kts
10-Jan-19 11:24 34.942823 -119.690638 183 2207ft 0kts
10-Jan-19 11:25 34.942823 -119.690638 183 2207ft 0kts
10-Jan-19 11:26 34.942823 -119.690638 183 2207ft 0kts
10-Jan-19 11:27 34.942823 -119.690638 183 2207ft 0kts
10-Jan-19 11:28 34.942823 -119.690638 183 2207ft 0kts
10-Jan-19 11:29 34.942823 -119.690638 183 2207ft 0kts

Navigation Log

Ident Type
Flight plan parsing failed, navigation log unavailable